Time;durP1;ratioP1;P1;durP2;ratioP2;P2;SDS_P1;SDS_P2;PMS_P1;PMS_P2;Temp;Humidity;BMP_temperature;BMP_pressure;BME280_temperature;BME280_humidity;BME280_pressure;Samples;Min_cycle;Max_cycle;Signal;HPM_P1;HPM_P2
2021/11/06 00:01:38;;;;;;;;;;;;;;;5.87;100.00;102701.25;5035129;28;19947;-46
2021/11/06 00:04:05;;;;;;;;;;;;;;;5.93;100.00;102701.16;5034616;28;19925;-44
2021/11/06 00:06:32;;;;;;;;;;;;;;;5.91;100.00;102695.09;5033727;28;20343;-47
2021/11/06 00:08:59;;;;;;;;;;;;;;;5.87;100.00;102701.25;5034922;28;20343;-45
2021/11/06 00:11:26;;;;;;;;;;;;;;;5.88;100.00;102697.75;5035278;28;19925;-45
2021/11/06 00:13:54;;;;;;;;;;;;;;;5.90;100.00;102698.63;5032000;28;19975;-43
2021/11/06 00:16:20;;;;;;;;;;;;;;;5.91;100.00;102700.31;5033884;28;19932;-45
2021/11/06 00:18:47;;;;;;;;;;;;;;;5.88;100.00;102692.53;5034269;28;19991;-45
2021/11/06 00:21:14;;;;;;;;;;;;;;;5.87;100.00;102696.03;5048270;28;19975;-49
2021/11/06 00:23:40;;;;;;;;;;;;;;;5.88;100.00;102695.16;5035263;28;19929;-47
2021/11/06 00:26:07;;;;;;;;;;;;;;;5.86;100.00;102696.94;5036057;28;19933;-46
2021/11/06 00:28:34;;;;;;;;;;;;;;;5.88;100.00;102700.38;5034438;28;19925;-45
2021/11/06 00:31:00;;;;;;;;;;;;;;;5.85;100.00;102697.81;5030879;28;19937;-47
2021/11/06 00:33:27;;;;;;;;;;;;;;;5.83;100.00;102693.50;5032882;28;20311;-47
2021/11/06 00:35:54;;;;;;;;;;;;;;;5.82;100.00;102691.75;5035544;28;20288;-54
2021/11/06 00:38:20;;;;;;;;;;;;;;;5.78;100.00;102688.34;5033109;28;19929;-53
2021/11/06 00:40:47;;;;;;;;;;;;;;;5.78;100.00;102693.59;5033120;28;19991;-54
2021/11/06 00:43:13;;;;;;;;;;;;;;;5.78;100.00;102696.19;5035066;28;19925;-54
2021/11/06 00:45:40;;;;;;;;;;;;;;;5.76;100.00;102703.16;5035944;28;19932;-55
2021/11/06 00:48:07;;;;;;;;;;;;;;;5.71;100.00;102699.75;5035643;28;19936;-53
2021/11/06 00:50:34;;;;;;;;;;;;;;;5.65;100.00;102702.47;5033381;28;20403;-54
2021/11/06 00:53:00;;;;;;;;;;;;;;;5.64;100.00;102703.34;5048024;28;20129;-51
2021/11/06 00:55:27;;;;;;;;;;;;;;;5.62;100.00;102700.78;5035479;28;20596;-51
2021/11/06 00:57:53;;;;;;;;;;;;;;;5.65;100.00;102705.09;5035710;28;19971;-51
2021/11/06 01:00:20;;;;;;;;;;;;;;;5.65;100.00;102702.47;5035148;28;20460;-51
2021/11/06 01:02:47;;;;;;;;;;;;;;;5.64;100.00;102700.75;5050745;28;19965;-53
2021/11/06 01:05:14;;;;;;;;;;;;;;;5.66;100.00;102702.44;5035032;28;19925;-54
2021/11/06 01:07:42;;;;;;;;;;;;;;;5.67;100.00;102705.91;5035543;28;20277;-53
2021/11/06 01:10:09;;;;;;;;;;;;;;;5.68;100.00;102699.81;5050860;28;19932;-53
2021/11/06 01:12:36;;;;;;;;;;;;;;;5.67;100.00;102701.56;5033833;28;19948;-51
2021/11/06 01:15:04;;;;;;;;;;;;;;;5.68;100.00;102699.81;5049911;28;19937;-50
2021/11/06 01:17:30;;;;;;;;;;;;;;;5.68;100.00;102705.88;5030470;28;19925;-46
2021/11/06 01:19:57;;;;;;;;;;;;;;;5.67;100.00;102701.56;5031760;28;19932;-45
2021/11/06 01:22:24;;;;;;;;;;;;;;;5.65;100.00;102699.88;5035056;28;19925;-46
2021/11/06 01:24:50;;;;;;;;;;;;;;;5.67;100.00;102698.09;5050183;28;19929;-45
2021/11/06 01:27:17;;;;;;;;;;;;;;;5.70;100.00;102703.25;5050309;28;19983;-45
2021/11/06 01:29:44;;;;;;;;;;;;;;;5.67;100.00;102688.53;5034865;28;19929;-45
2021/11/06 01:32:10;;;;;;;;;;;;;;;5.67;100.00;102695.47;5031191;28;20754;-45
2021/11/06 01:34:38;;;;;;;;;;;;;;;5.65;100.00;102700.72;5030831;28;19929;-44
2021/11/06 01:37:04;;;;;;;;;;;;;;;5.65;100.00;102692.88;5034463;28;19975;-45
2021/11/06 01:39:31;;;;;;;;;;;;;;;5.68;100.00;102699.81;5033346;28;19929;-46
2021/11/06 01:41:59;;;;;;;;;;;;;;;5.67;100.00;102692.84;5049685;28;19932;-45
2021/11/06 01:44:26;;;;;;;;;;;;;;;5.67;100.00;102693.75;5030810;28;19948;-47
2021/11/06 01:46:52;;;;;;;;;;;;;;;5.70;100.00;102691.06;5033051;28;19925;-46
2021/11/06 01:49:20;;;;;;;;;;;;;;;5.71;100.00;102689.31;5033512;28;19925;-45
2021/11/06 01:51:47;;;;;;;;;;;;;;;5.74;100.00;102690.16;5034672;28;19925;-46
2021/11/06 01:54:14;;;;;;;;;;;;;;;5.70;100.00;102683.25;5034180;28;19925;-47
2021/11/06 01:56:42;;;;;;;;;;;;;;;5.78;100.00;102688.34;5033989;28;19944;-45
2021/11/06 01:59:09;;;;;;;;;;;;;;;5.76;100.00;102684.91;5051116;28;19924;-46
2021/11/06 02:01:35;;;;;;;;;;;;;;;5.74;100.00;102674.47;5053658;28;19933;-47
2021/11/06 02:04:02;;;;;;;;;;;;;;;5.79;100.00;102677.00;5044898;28;19929;-46
2021/11/06 02:06:29;;;;;;;;;;;;;;;5.78;100.00;102675.31;5051267;28;20383;-46
2021/11/06 02:08:56;;;;;;;;;;;;;;;5.80;100.00;102677.88;5034718;28;19967;-45
2021/11/06 02:11:22;;;;;;;;;;;;;;;5.83;100.00;102673.47;5047892;28;20612;-45
2021/11/06 02:13:55;;;;;;;;;;;;;;;5.82;100.00;102670.88;5045796;28;19925;-45
2021/11/06 02:16:21;;;;;;;;;;;;;;;5.79;100.00;102677.00;5058160;28;19935;-44
2021/11/06 02:18:48;;;;;;;;;;;;;;;5.82;100.00;102666.53;5041645;28;20004;-45
2021/11/06 02:21:15;;;;;;;;;;;;;;;5.85;100.00;102665.59;5032593;28;19925;-49
2021/11/06 02:23:43;;;;;;;;;;;;;;;5.84;100.00;102664.75;5033806;28;19925;-46
2021/11/06 02:26:10;;;;;;;;;;;;;;;5.90;100.00;102669.88;5033550;28;20274;-47
2021/11/06 02:28:58;;;;;;;;;;;;;;;5.89;100.00;102662.94;5032006;28;19933;-47
2021/11/06 02:31:25;;;;;;;;;;;;;;;5.89;100.00;102673.38;5033751;28;19948;-45
2021/11/06 02:33:52;;;;;;;;;;;;;;;5.91;100.00;102666.34;5047560;28;19970;-45
2021/11/06 02:36:18;;;;;;;;;;;;;;;5.92;100.00;102673.31;5048703;28;19947;-42
2021/11/06 02:38:45;;;;;;;;;;;;;;;5.92;100.00;102669.84;5033765;28;20368;-45
2021/11/06 02:41:12;;;;;;;;;;;;;;;5.93;100.00;102669.81;5032670;28;19979;-46
2021/11/06 02:43:39;;;;;;;;;;;;;;;5.95;100.00;102671.56;5041556;28;19925;-46
2021/11/06 02:46:06;;;;;;;;;;;;;;;5.96;100.00;102683.69;5048700;28;19929;-45
2021/11/06 02:48:32;;;;;;;;;;;;;;;5.94;100.00;102681.13;5033405;28;20323;-44
2021/11/06 02:50:59;;;;;;;;;;;;;;;5.93;100.00;102677.66;5033399;28;19924;-48
2021/11/06 02:53:26;;;;;;;;;;;;;;;5.93;100.00;102680.28;5033655;28;20269;-44
2021/11/06 02:55:54;;;;;;;;;;;;;;;5.97;100.00;102685.44;5052142;28;20371;-43
2021/11/06 02:58:20;;;;;;;;;;;;;;;6.00;100.00;102688.91;5053214;28;19925;-46
2021/11/06 03:00:47;;;;;;;;;;;;;;;6.01;100.00;102689.75;5053137;28;19977;-46
2021/11/06 03:03:14;;;;;;;;;;;;;;;6.02;100.00;102694.09;5049412;28;20442;-45
2021/11/06 03:05:40;;;;;;;;;;;;;;;6.04;100.00;102687.97;5037367;28;19932;-45
2021/11/06 03:08:07;;;;;;;;;;;;;;;6.01;100.00;102693.25;5032553;28;19983;-44
2021/11/06 03:10:34;;;;;;;;;;;;;;;6.01;100.00;102693.25;5033018;28;19929;-43
2021/11/06 03:13:01;;;;;;;;;;;;;;;6.04;100.00;102684.47;5030355;28;20474;-44
2021/11/06 03:15:28;;;;;;;;;;;;;;;6.06;100.00;102693.16;5032141;28;19929;-45
2021/11/06 03:17:54;;;;;;;;;;;;;;;6.07;100.00;102684.44;5048600;28;19925;-55
2021/11/06 03:20:21;;;;;;;;;;;;;;;6.13;100.00;102686.94;5030849;28;19925;-52
2021/11/06 03:22:49;;;;;;;;;;;;;;;6.12;100.00;102685.19;5045177;28;20359;-50
2021/11/06 03:25:16;;;;;;;;;;;;;;;6.11;100.00;102685.22;5032395;28;19929;-52
2021/11/06 03:27:43;;;;;;;;;;;;;;;6.15;100.00;102685.16;5044778;28;19932;-53
2021/11/06 03:30:10;;;;;;;;;;;;;;;6.11;100.00;102682.63;5068330;28;19943;-53
2021/11/06 03:32:37;;;;;;;;;;;;;;;6.15;100.00;102673.84;5057003;28;19925;-53
2021/11/06 03:35:05;;;;;;;;;;;;;;;6.07;100.00;102672.22;5071909;28;19924;-53
2021/11/06 03:37:31;;;;;;;;;;;;;;;6.10;100.00;102671.31;5040858;28;19925;-51
2021/11/06 03:39:58;;;;;;;;;;;;;;;6.13;100.00;102673.03;5051702;28;19998;-53
2021/11/06 03:42:25;;;;;;;;;;;;;;;6.16;100.00;102671.22;5046303;28;19925;-53
2021/11/06 03:44:51;;;;;;;;;;;;;;;6.13;100.00;102663.41;5054646;28;19928;-50
2021/11/06 03:47:18;;;;;;;;;;;;;;;6.14;100.00;102659.06;5038270;28;19929;-51
2021/11/06 03:49:45;;;;;;;;;;;;;;;6.14;100.00;102662.53;5036886;28;20026;-52
2021/11/06 03:52:13;;;;;;;;;;;;;;;6.10;100.00;102660.88;5049759;28;19925;-49
2021/11/06 03:54:41;;;;;;;;;;;;;;;6.12;100.00;102656.47;5034103;28;19971;-52
2021/11/06 03:57:08;;;;;;;;;;;;;;;6.15;100.00;102652.94;5052054;28;19933;-52
2021/11/06 03:59:35;;;;;;;;;;;;;;;6.21;100.00;102652.84;5071833;28;19932;-53
2021/11/06 04:02:03;;;;;;;;;;;;;;;6.20;100.00;102657.22;5054467;28;19924;-51
2021/11/06 04:04:29;;;;;;;;;;;;;;;6.19;100.00;102665.94;5047632;28;19932;-53
2021/11/06 04:06:56;;;;;;;;;;;;;;;6.17;100.00;102654.63;5053891;28;19975;-53
2021/11/06 04:09:23;;;;;;;;;;;;;;;6.16;100.00;102659.91;5056294;28;19925;-51
2021/11/06 04:11:50;;;;;;;;;;;;;;;6.19;100.00;102658.09;5055359;28;20446;-54
2021/11/06 04:14:17;;;;;;;;;;;;;;;6.20;99.91;102659.84;5051681;28;19932;-50
2021/11/06 04:16:43;;;;;;;;;;;;;;;6.23;100.00;102653.66;5052465;28;19925;-52
2021/11/06 04:19:10;;;;;;;;;;;;;;;6.25;99.41;102659.75;5052302;28;20388;-53
2021/11/06 04:21:38;;;;;;;;;;;;;;;6.23;99.47;102659.78;5054860;28;19932;-52
2021/11/06 04:24:05;;;;;;;;;;;;;;;6.23;99.12;102659.78;5055444;28;19924;-53
2021/11/06 04:26:32;;;;;;;;;;;;;;;6.26;99.68;102662.31;5049589;28;19948;-52
2021/11/06 04:28:58;;;;;;;;;;;;;;;6.24;99.78;102660.63;5038416;28;20469;-49
2021/11/06 04:31:25;;;;;;;;;;;;;;;6.21;99.28;102653.69;5054272;28;19925;-50
2021/11/06 04:33:52;;;;;;;;;;;;;;;6.23;99.01;102657.16;5055905;28;19924;-52
2021/11/06 04:36:19;;;;;;;;;;;;;;;6.18;99.13;102650.28;5052450;28;19935;-49
2021/11/06 04:38:45;;;;;;;;;;;;;;;6.21;99.22;102658.06;5052343;28;19924;-51
2021/11/06 04:41:12;;;;;;;;;;;;;;;6.11;99.12;102654.75;5053659;28;19929;-49
2021/11/06 04:43:39;;;;;;;;;;;;;;;6.15;98.92;102645.97;5052648;28;19931;-42
2021/11/06 04:46:06;;;;;;;;;;;;;;;6.14;99.13;102641.63;5054867;28;20415;-42
2021/11/06 04:48:32;;;;;;;;;;;;;;;6.17;98.62;102652.03;5055546;28;19925;-51
2021/11/06 04:50:59;;;;;;;;;;;;;;;6.16;99.43;102652.06;5055442;28;19925;-50
2021/11/06 04:53:26;;;;;;;;;;;;;;;6.18;99.17;102653.75;5070781;28;19925;-55
2021/11/06 04:55:55;;;;;;;;;;;;;;;6.18;99.32;102656.38;5055405;28;19932;-54
2021/11/06 04:58:22;;;;;;;;;;;;;;;6.13;99.05;102666.03;5055184;28;20350;-51
2021/11/06 05:00:48;;;;;;;;;;;;;;;6.14;99.52;102666.91;5054752;28;19971;-52
2021/11/06 05:03:15;;;;;;;;;;;;;;;6.17;99.18;102653.78;5055137;28;19933;-53
2021/11/06 05:05:42;;;;;;;;;;;;;;;6.20;99.70;102651.13;5053192;28;19932;-54
2021/11/06 05:08:08;;;;;;;;;;;;;;;6.15;99.96;102656.44;5052828;28;19929;-52
2021/11/06 05:10:35;;;;;;;;;;;;;;;6.20;99.39;102652.00;5069317;28;19932;-51
2021/11/06 05:13:02;;;;;;;;;;;;;;;6.14;100.00;102646.88;5053793;28;19925;-53
2021/11/06 05:15:29;;;;;;;;;;;;;;;6.17;100.00;102646.81;5055019;28;20395;-54
2021/11/06 05:17:55;;;;;;;;;;;;;;;6.12;100.00;102645.16;5055041;28;19928;-52
2021/11/06 05:20:22;;;;;;;;;;;;;;;6.10;100.00;102653.03;5052991;28;20412;-51
2021/11/06 05:22:49;;;;;;;;;;;;;;;6.16;100.00;102647.72;5067686;28;20451;-49
2021/11/06 05:25:15;;;;;;;;;;;;;;;6.23;100.00;102653.66;5052305;28;19939;-52
2021/11/06 05:27:42;;;;;;;;;;;;;;;6.30;100.00;102643.97;5054792;28;19924;-51
2021/11/06 05:30:10;;;;;;;;;;;;;;;6.30;100.00;102651.81;5054697;28;19924;-50
2021/11/06 05:32:36;;;;;;;;;;;;;;;6.29;100.00;102660.56;5054942;28;19924;-52
2021/11/06 05:35:04;;;;;;;;;;;;;;;6.25;100.00;102657.97;5070009;28;19978;-52
2021/11/06 05:37:31;;;;;;;;;;;;;;;6.31;100.00;102658.75;5069713;28;20306;-53
2021/11/06 05:39:57;;;;;;;;;;;;;;;6.33;100.00;102659.59;5069831;28;19924;-50
2021/11/06 05:42:24;;;;;;;;;;;;;;;6.36;100.00;102657.78;5054266;28;20338;-50
2021/11/06 05:44:51;;;;;;;;;;;;;;;6.28;100.00;102659.69;5053287;28;20433;-54
2021/11/06 05:47:17;;;;;;;;;;;;;;;6.30;100.00;102657.03;5053068;28;19928;-51
2021/11/06 05:49:44;;;;;;;;;;;;;;;6.32;100.00;102655.25;5053941;28;19925;-52
2021/11/06 05:52:30;;;;;;;;;;;;;;;6.26;100.00;102651.88;5053348;28;20410;-52
2021/11/06 05:54:57;;;;;;;;;;;;;;;6.26;100.00;102656.25;5052256;28;19948;-54
2021/11/06 05:57:24;;;;;;;;;;;;;;;6.25;100.00;102657.13;5050739;28;19925;-54
2021/11/06 05:59:50;;;;;;;;;;;;;;;6.25;100.00;102650.13;5053830;28;19960;-50
2021/11/06 06:02:17;;;;;;;;;;;;;;;6.24;100.00;102650.16;5049409;28;19925;-49
2021/11/06 06:04:44;;;;;;;;;;;;;;;6.22;100.00;102642.34;5052205;28;20307;-52
2021/11/06 06:07:10;;;;;;;;;;;;;;;6.23;100.00;102649.31;5052053;28;19924;-50
2021/11/06 06:09:37;;;;;;;;;;;;;;;6.25;100.00;102646.69;5051425;28;19929;-49
2021/11/06 06:12:04;;;;;;;;;;;;;;;6.24;100.00;102647.56;5052836;28;19924;-49
2021/11/06 06:14:31;;;;;;;;;;;;;;;6.19;100.00;102647.66;5053801;28;19931;-49
2021/11/06 06:16:57;;;;;;;;;;;;;;;6.30;100.00;102651.81;5053922;28;20330;-53
2021/11/06 06:19:24;;;;;;;;;;;;;;;6.31;100.00;102643.09;5053900;28;19928;-53
2021/11/06 06:21:51;;;;;;;;;;;;;;;6.28;100.00;102653.59;5054302;28;20414;-50
2021/11/06 06:24:18;;;;;;;;;;;;;;;6.28;100.00;102662.28;5053826;28;19925;-50
2021/11/06 06:26:45;;;;;;;;;;;;;;;6.29;100.00;102668.41;5051723;28;19925;-55
2021/11/06 06:29:11;;;;;;;;;;;;;;;6.29;100.00;102665.78;5050833;28;20398;-51
2021/11/06 06:31:38;;;;;;;;;;;;;;;6.30;100.00;102672.72;5051434;28;20334;-47
2021/11/06 06:34:04;;;;;;;;;;;;;;;6.28;100.00;102664.06;5053392;28;19947;-54
2021/11/06 06:36:31;;;;;;;;;;;;;;;6.29;100.00;102668.41;5052085;28;19925;-53
2021/11/06 06:38:58;;;;;;;;;;;;;;;6.21;100.00;102666.75;5053381;28;19924;-54
2021/11/06 06:41:27;;;;;;;;;;;;;;;6.19;100.00;102671.16;5052989;28;20364;-54
2021/11/06 06:43:55;;;;;;;;;;;;;;;6.20;100.00;102670.28;5068551;28;20391;-53
2021/11/06 06:46:22;;;;;;;;;;;;;;;6.25;100.00;102667.56;5053548;28;19929;-50
2021/11/06 06:48:49;;;;;;;;;;;;;;;6.29;100.00;102661.41;5053447;28;20327;-51
2021/11/06 06:51:15;;;;;;;;;;;;;;;6.25;100.00;102665.81;5068277;28;20273;-49
2021/11/06 06:53:42;;;;;;;;;;;;;;;6.26;100.00;102658.84;5052896;28;19925;-45
2021/11/06 06:56:09;;;;;;;;;;;;;;;6.35;100.00;102660.44;5049961;28;19928;-47
2021/11/06 06:58:35;;;;;;;;;;;;;;;6.36;100.00;102670.00;5051621;28;19970;-47
2021/11/06 07:01:02;;;;;;;;;;;;;;;6.30;100.00;102665.75;5050779;28;19925;-43
2021/11/06 07:03:28;;;;;;;;;;;;;;;6.30;100.00;102667.47;5049654;28;20055;-44
2021/11/06 07:05:55;;;;;;;;;;;;;;;6.33;100.00;102670.91;5051008;28;19931;-49
2021/11/06 07:08:23;;;;;;;;;;;;;;;6.31;100.00;102670.06;5068514;28;19928;-45
2021/11/06 07:10:49;;;;;;;;;;;;;;;6.33;100.00;102667.44;5052339;28;19932;-44
2021/11/06 07:13:20;;;;;;;;;;;;;;;6.38;100.00;102668.19;5048794;28;19935;-46
2021/11/06 07:15:47;;;;;;;;;;;;;;;6.37;100.00;102667.34;5051589;28;19925;-47
2021/11/06 07:18:14;;;;;;;;;;;;;;;6.40;100.00;102676.91;5053194;28;19924;-46
2021/11/06 07:20:41;;;;;;;;;;;;;;;6.42;100.00;102675.97;5052894;28;19929;-45
2021/11/06 07:23:08;;;;;;;;;;;;;;;6.42;100.00;102675.09;5051618;28;20307;-51
2021/11/06 07:25:34;;;;;;;;;;;;;;;6.42;100.00;102669.88;5052973;28;19925;-49
2021/11/06 07:28:01;;;;;;;;;;;;;;;6.45;100.00;102674.19;5068145;28;20679;-46
2021/11/06 07:30:28;;;;;;;;;;;;;;;6.51;100.00;102674.94;5050075;28;20331;-47
2021/11/06 07:32:54;;;;;;;;;;;;;;;6.49;100.00;102675.84;5047299;28;19972;-45
2021/11/06 07:35:21;;;;;;;;;;;;;;;6.46;100.00;102676.75;5051724;28;19931;-48
2021/11/06 07:37:48;;;;;;;;;;;;;;;6.60;100.00;102671.28;5052839;28;20007;-50
2021/11/06 07:40:14;;;;;;;;;;;;;;;6.55;100.00;102670.50;5052673;28;19924;-54
2021/11/06 07:42:42;;;;;;;;;;;;;;;6.57;100.00;102677.44;5051649;28;19925;-52
2021/11/06 07:45:10;;;;;;;;;;;;;;;6.60;100.00;102677.38;5049650;28;20666;-51
2021/11/06 07:47:36;;;;;;;;;;;;;;;6.63;100.00;102673.84;5052002;28;19925;-52
2021/11/06 07:50:03;;;;;;;;;;;;;;;6.59;100.00;102678.25;5052564;28;19932;-53
2021/11/06 07:52:30;;;;;;;;;;;;;;;6.60;100.00;102681.75;5052938;28;19966;-53
2021/11/06 07:54:57;;;;;;;;;;;;;;;6.65;100.00;102682.50;5051140;28;20396;-50
2021/11/06 07:57:23;;;;;;;;;;;;;;;6.68;100.00;102684.19;5049449;28;19932;-50
2021/11/06 07:59:51;;;;;;;;;;;;;;;6.64;100.00;102677.31;5051223;28;20346;-51
2021/11/06 08:02:18;;;;;;;;;;;;;;;6.64;100.00;102677.31;5048367;28;19936;-51
2021/11/06 08:04:44;;;;;;;;;;;;;;;6.70;100.00;102680.66;5049741;28;19932;-48
2021/11/06 08:07:11;;;;;;;;;;;;;;;6.72;100.00;102680.63;5052565;28;19925;-53
2021/11/06 08:09:37;;;;;;;;;;;;;;;6.69;100.00;102678.94;5052670;28;20399;-54
2021/11/06 08:12:04;;;;;;;;;;;;;;;6.71;100.00;102684.16;5052389;28;19960;-53
2021/11/06 08:14:31;;;;;;;;;;;;;;;6.72;100.00;102689.38;5065587;28;19928;-52
2021/11/06 08:17:00;;;;;;;;;;;;;;;6.73;100.00;102685.84;5050806;28;19925;-50
2021/11/06 08:19:26;;;;;;;;;;;;;;;6.67;100.00;102683.34;5056336;28;20379;-48
2021/11/06 08:21:55;;;;;;;;;;;;;;;6.69;100.00;102681.56;5056189;28;19936;-51
2021/11/06 08:24:22;;;;;;;;;;;;;;;6.72;100.00;102680.63;5054522;28;20354;-54
2021/11/06 08:26:49;;;;;;;;;;;;;;;6.75;100.00;102680.59;5052978;28;19932;-52
2021/11/06 08:29:16;;;;;;;;;;;;;;;6.77;100.00;102668.34;5054627;28;19943;-51
2021/11/06 08:31:43;;;;;;;;;;;;;;;6.83;100.00;102660.38;5055228;28;19924;-52
2021/11/06 08:34:09;;;;;;;;;;;;;;;6.86;100.00;102660.31;5055724;28;19929;-52
2021/11/06 08:36:36;;;;;;;;;;;;;;;6.85;100.00;102670.81;5055492;28;20383;-50
2021/11/06 08:39:04;;;;;;;;;;;;;;;6.95;100.00;102667.09;5055724;28;19928;-53
2021/11/06 08:41:30;;;;;;;;;;;;;;;7.03;100.00;102670.41;5055609;28;19924;-53
2021/11/06 08:43:57;;;;;;;;;;;;;;;7.07;100.00;102665.97;5055706;28;19924;-55
2021/11/06 08:46:24;;;;;;;;;;;;;;;7.06;100.00;102665.13;5054345;28;20295;-53
2021/11/06 08:48:51;;;;;;;;;;;;;;;7.05;99.95;102665.16;5055363;28;20059;-53
2021/11/06 08:51:18;;;;;;;;;;;;;;;7.05;99.75;102660.78;5054236;28;19924;-51
2021/11/06 08:53:47;;;;;;;;;;;;;;;7.08;99.66;102657.25;5054211;28;19925;-52
2021/11/06 08:56:14;;;;;;;;;;;;;;;7.12;99.29;102658.91;5053957;28;19929;-50
2021/11/06 08:58:42;;;;;;;;;;;;;;;7.17;99.63;102662.28;5055313;28;19925;-52
2021/11/06 09:01:08;;;;;;;;;;;;;;;7.17;99.57;102661.41;5055261;28;20288;-54
2021/11/06 09:03:35;;;;;;;;;;;;;;;7.17;99.29;102656.16;5055351;28;19925;-53
2021/11/06 09:06:01;;;;;;;;;;;;;;;7.30;98.85;102652.41;5055287;28;19925;-53
2021/11/06 09:08:30;;;;;;;;;;;;;;;7.34;98.52;102654.03;5055561;28;19932;-53
2021/11/06 09:10:59;;;;;;;;;;;;;;;7.35;98.53;102649.66;5055126;28;20411;-52
2021/11/06 09:13:26;;;;;;;;;;;;;;;7.40;98.63;102658.28;5052385;28;19971;-53
2021/11/06 09:16:05;;;;;;;;;;;;;;;7.45;98.47;102657.28;5053047;28;20327;-54
2021/11/06 09:18:32;;;;;;;;;;;;;;;7.52;98.27;102660.59;5054580;28;20463;-50
2021/11/06 09:21:04;;;;;;;;;;;;;;;7.53;98.10;102651.00;5054829;28;20334;-54
2021/11/06 09:23:31;;;;;;;;;;;;;;;7.51;97.08;102663.28;5052876;28;20364;-54
2021/11/06 09:25:58;;;;;;;;;;;;;;;7.53;97.23;102659.72;5052613;28;19929;-49
2021/11/06 09:28:26;;;;;;;;;;;;;;;7.54;97.28;102657.94;5052249;28;19931;-51
2021/11/06 09:30:53;;;;;;;;;;;;;;;7.61;97.85;102657.78;5055190;28;20433;-49
2021/11/06 09:33:19;;;;;;;;;;;;;;;7.63;97.51;102669.97;5053534;28;19936;-44
2021/11/06 09:35:47;;;;;;;;;;;;;;;7.57;97.56;102663.13;5052545;28;20339;-48
2021/11/06 09:38:14;;;;;;;;;;;;;;;7.59;97.64;102667.44;5051693;28;19982;-46
2021/11/06 09:40:40;;;;;;;;;;;;;;;7.72;97.19;102654.91;5053782;28;19931;-45
2021/11/06 09:43:07;;;;;;;;;;;;;;;7.75;97.28;102661.84;5054250;28;19925;-46
2021/11/06 09:45:34;;;;;;;;;;;;;;;7.79;97.34;102655.63;5053211;28;20384;-47
2021/11/06 09:48:00;;;;;;;;;;;;;;;7.86;96.98;102666.81;5054959;28;20398;-49
2021/11/06 09:50:27;;;;;;;;;;;;;;;7.85;96.46;102655.44;5053161;28;19979;-46
2021/11/06 09:52:56;;;;;;;;;;;;;;;7.95;96.03;102654.34;5051711;28;20107;-54
2021/11/06 09:55:23;;;;;;;;;;;;;;;7.97;96.68;102649.06;5051926;28;19932;-54
2021/11/06 09:57:50;;;;;;;;;;;;;;;8.05;96.62;102647.09;5068898;28;19925;-54
2021/11/06 10:00:18;;;;;;;;;;;;;;;8.08;95.37;102652.25;5066336;28;20419;-56
2021/11/06 10:02:45;;;;;;;;;;;;;;;8.14;94.74;102648.63;5051598;28;19947;-55
2021/11/06 10:05:11;;;;;;;;;;;;;;;8.21;95.55;102642.31;5053974;28;20504;-46
2021/11/06 10:07:39;;;;;;;;;;;;;;;8.25;95.47;102638.72;5053961;28;19967;-54
2021/11/06 10:10:10;;;;;;;;;;;;;;;8.31;95.39;102637.69;5052253;28;19982;-55
2021/11/06 10:12:49;;;;;;;;;;;;;;;8.42;94.93;102634.78;5053988;28;19933;-54
2021/11/06 10:15:16;;;;;;;;;;;;;;;8.50;94.76;102635.44;5054050;28;19933;-54
2021/11/06 10:17:43;;;;;;;;;;;;;;;8.50;95.10;102635.44;5053494;28;19925;-54
2021/11/06 10:20:17;;;;;;;;;;;;;;;8.63;94.39;102634.22;5049612;28;19961;-54
2021/11/06 10:22:44;;;;;;;;;;;;;;;8.70;93.75;102634.03;5050491;28;19931;-55
2021/11/06 10:25:11;;;;;;;;;;;;;;;8.71;93.08;102631.38;5053975;28;19970;-54
2021/11/06 10:27:37;;;;;;;;;;;;;;;8.80;93.73;102627.63;5053816;28;19947;-54
2021/11/06 10:30:18;;;;;;;;;;;;;;;8.77;92.41;102630.34;5052502;28;19939;-45
2021/11/06 10:32:54;;;;;;;;;;;;;;;8.83;92.82;102624.88;5049021;28;20458;-49
2021/11/06 10:35:25;;;;;;;;;;;;;;;8.86;92.92;102626.56;5051532;28;20024;-47
2021/11/06 10:38:06;;;;;;;;;;;;;;;8.93;91.88;102614.97;5052004;28;19929;-46
2021/11/06 10:40:35;;;;;;;;;;;;;;;8.95;91.96;102621.91;5053350;28;19924;-46
2021/11/06 10:43:03;;;;;;;;;;;;;;;9.00;91.35;102608.66;5052519;28;20366;-45
2021/11/06 10:45:31;;;;;;;;;;;;;;;9.04;91.04;102612.03;5053458;28;20380;-46
2021/11/06 10:48:03;;;;;;;;;;;;;;;9.04;90.99;102605.03;5053418;28;19931;-45
2021/11/06 10:50:50;;;;;;;;;;;;;;;9.05;89.97;102601.50;5053190;28;19925;-44
2021/11/06 10:53:37;;;;;;;;;;;;;;;9.12;90.64;102589.03;5051926;28;19932;-45
2021/11/06 10:56:13;;;;;;;;;;;;;;;9.15;89.68;102588.97;5045196;28;19987;-45
2021/11/06 10:58:43;;;;;;;;;;;;;;;9.12;89.85;102589.03;5051761;28;20318;-47
2021/11/06 11:01:11;;;;;;;;;;;;;;;9.24;89.61;102590.41;5068638;28;19928;-44
2021/11/06 11:03:39;;;;;;;;;;;;;;;9.33;89.79;102576.16;5053148;28;19933;-47
2021/11/06 11:06:08;;;;;;;;;;;;;;;9.40;88.87;102580.28;5065483;28;19928;-45
2021/11/06 11:08:40;;;;;;;;;;;;;;;9.43;88.16;102572.31;5066880;28;19938;-48
2021/11/06 11:11:07;;;;;;;;;;;;;;;9.51;88.45;102572.06;5053105;28;19932;-47
2021/11/06 11:13:34;;;;;;;;;;;;;;;9.57;87.57;102569.22;5053208;28;19943;-50
2021/11/06 11:16:11;;;;;;;;;;;;;;;9.53;87.37;102573.72;5053160;28;19928;-47
2021/11/06 11:18:38;;;;;;;;;;;;;;;9.67;87.40;102567.13;5053034;28;19975;-50
2021/11/06 11:21:13;;;;;;;;;;;;;;;9.70;87.04;102562.63;5065285;28;19929;-46
2021/11/06 11:23:40;;;;;;;;;;;;;;;9.75;87.70;102563.34;5051653;28;19929;-46
2021/11/06 11:26:07;;;;;;;;;;;;;;;9.79;87.31;102545.72;5051769;28;19925;-48
2021/11/06 11:28:34;;;;;;;;;;;;;;;9.87;86.71;102550.69;5053015;28;19925;-48
2021/11/06 11:31:00;;;;;;;;;;;;;;;9.80;87.37;102542.16;5048916;28;19929;-48
2021/11/06 11:33:34;;;;;;;;;;;;;;;9.90;86.48;102551.44;5064667;28;20375;-55
2021/11/06 11:36:00;;;;;;;;;;;;;;;9.95;86.11;102559.16;5052548;28;20399;-50
2021/11/06 11:38:27;;;;;;;;;;;;;;;9.99;85.93;102545.00;5068352;28;19936;-45
2021/11/06 11:41:09;;;;;;;;;;;;;;;10.11;85.48;102541.09;5050749;28;20658;-56
2021/11/06 11:43:46;;;;;;;;;;;;;;;10.15;85.48;102540.91;5050177;28;19924;-56
2021/11/06 11:46:15;;;;;;;;;;;;;;;10.19;85.69;102536.41;5052489;28;19924;-55
2021/11/06 11:48:42;;;;;;;;;;;;;;;10.23;84.94;102531.91;5051433;28;19925;-55
2021/11/06 11:51:08;;;;;;;;;;;;;;;10.28;85.87;102532.56;5069787;28;20387;-55
2021/11/06 11:53:35;;;;;;;;;;;;;;;10.40;85.06;102528.66;5056805;28;19951;-55
2021/11/06 11:56:15;;;;;;;;;;;;;;;10.42;84.78;102524.22;5056546;28;19929;-55
2021/11/06 11:58:44;;;;;;;;;;;;;;;10.42;84.47;102516.31;5070568;28;19932;-54
2021/11/06 12:01:18;;;;;;;;;;;;;;;10.41;84.78;102514.59;5052381;28;19939;-55
2021/11/06 12:03:46;;;;;;;;;;;;;;;10.47;84.03;102515.22;5053913;28;19924;-55
2021/11/06 12:06:29;;;;;;;;;;;;;;;10.62;84.65;102507.63;5071302;28;19955;-54
2021/11/06 12:09:11;;;;;;;;;;;;;;;10.56;84.79;102508.75;5056402;28;20374;-55
2021/11/06 12:11:49;;;;;;;;;;;;;;;10.64;84.95;102496.16;5056304;28;20364;-55
2021/11/06 12:14:20;;;;;;;;;;;;;;;10.71;83.32;102499.41;5056125;28;19931;-55
2021/11/06 12:16:48;;;;;;;;;;;;;;;10.80;83.50;102491.13;5055779;28;19948;-57
2021/11/06 12:19:34;;;;;;;;;;;;;;;10.89;82.61;102495.16;5052845;28;19987;-56
2021/11/06 12:22:06;;;;;;;;;;;;;;;10.96;81.98;102488.75;5054237;28;19929;-55
2021/11/06 12:24:32;;;;;;;;;;;;;;;11.03;82.10;102480.59;5054171;28;19925;-55
2021/11/06 12:27:00;;;;;;;;;;;;;;;11.15;82.30;102474.81;5052637;28;20347;-54
2021/11/06 12:29:34;;;;;;;;;;;;;;;11.28;81.00;102470.75;5054778;28;19932;-55
2021/11/06 12:32:15;;;;;;;;;;;;;;;11.25;81.42;102470.88;5055720;28;20453;-56
2021/11/06 12:34:46;;;;;;;;;;;;;;;11.31;81.61;102467.97;5055829;28;19925;-56
2021/11/06 12:37:33;;;;;;;;;;;;;;;11.46;81.39;102463.84;5055416;28;20453;-55
2021/11/06 12:40:01;;;;;;;;;;;;;;;11.53;80.79;102461.78;5055352;28;19929;-56
2021/11/06 12:42:30;;;;;;;;;;;;;;;11.52;81.19;102451.31;5055688;28;19932;-56
2021/11/06 12:45:10;;;;;;;;;;;;;;;11.42;80.52;102451.72;5068809;28;19925;-55